首页
METAR-TAF:

METAR-TAF

机场 :

Jackson County Airport (Reynolds Field)

杰克逊, 密歇根州, 美国

纬度: 42-15-35N, 经度: 084-27-34W, 海拔: 305米

当前天气观测

该预报发布于10分钟前的18:56 UTC
风速6节,风向东转东南
温度 10°C
湿度 93%
气压 1007 hPa
能見度: 16.1公里
阴天层高于400英尺

METAR: KJXN 281856Z 11006KT 10SM OVC004 10/09 A2973 RMK AO2 PRESFR SLP071 T01000089

时间: 15:06 (19:06 UTC)

预报

该预报发布于1小时和38分钟前的17:28 UTC
预报有效从28日的 18点(UTC)到 29日的 18点(UTC)
风速7节,风向
能見度: 10公里
阴天层高于500英尺
短暂存在
从 28日的 18点(UTC)到 28日的 22点(UTC)
能見度: 4.8公里
阵雨, 轻雾
从 29日的 0400点(UTC)
风速11节,风向东南
能見度: 6.4公里
阴天层高于600英尺, 积雨云.
阵雨, 附近有雷暴
从 29日的 0600点(UTC)
风速11节,风向南转南东
能見度: 6.4公里
阴天层高于500英尺
阵雨
从 29日的 0900点(UTC)
风速9节,风向南转西南
能見度: 9.7公里
多云层高于1000英尺
轻雾, 附近有阵雨
从 29日的 1200点(UTC)
风速11节,风向南转西南
能見度: 10公里
散云层高于10000英尺
从 29日的 1500点(UTC)
风速20节,风向西南,有时为32节阵风
能見度: 10公里
多云层高于3000英尺

TAF: KJXN 281728Z 2818/2918 10007KT P6SM OVC005 TEMPO 2818/2822 3SM SHRA BR FM290400 13011KT 4SM SHRA VCTS OVC006CB FM290600 15011KT 4SM SHRA OVC005 WS020/20040KT FM290900 21009KT 6SM BR VCSH BKN010 FM291200 21011KT P6SM SCT100 WS020/23040KT FM291500 22020G32KT P6SM BKN030

超过4000个机场的气象观测和天气预报(METAR&TAF报告)。

可查询的气象台以黄色和红色小点在地图上表示。

将鼠标移到小点上方,可查看气象台名称。

然后点击查看天气观测和预报。

如需切换地图:点击带黑十字的绿色按钮放大地图;点击带横线的绿色按钮缩小地图;或者点击绿色箭头查看邻近地区的地图。


METAR-TAF: